sensor_id;sensor_type;location;lat;lon;timestamp;pressure;altitude;pressure_sealevel;temperature;humidity
50632;BME280;49583;45.590;-122.498;2023-05-02T00:01:32;100451.14;;;16.15;48.41
50632;BME280;49583;45.590;-122.498;2023-05-02T00:03:46;100450.96;;;16.18;48.45
50632;BME280;49583;45.590;-122.498;2023-05-02T00:05:56;100454.98;;;16.20;48.38
50632;BME280;49583;45.590;-122.498;2023-05-02T00:08:09;100456.30;;;16.24;48.40
50632;BME280;49583;45.590;-122.498;2023-05-02T00:10:38;100468.92;;;16.26;48.47
50632;BME280;49583;45.590;-122.498;2023-05-02T00:12:50;100476.40;;;16.27;48.49
50632;BME280;49583;45.590;-122.498;2023-05-02T00:15:20;100474.20;;;16.27;48.44
50632;BME280;49583;45.590;-122.498;2023-05-02T00:17:30;100468.34;;;16.31;48.59
50632;BME280;49583;45.590;-122.498;2023-05-02T00:19:40;100473.14;;;16.33;48.52
50632;BME280;49583;45.590;-122.498;2023-05-02T00:21:50;100473.53;;;16.34;48.59
50632;BME280;49583;45.590;-122.498;2023-05-02T00:24:02;100474.55;;;16.35;48.52
50632;BME280;49583;45.590;-122.498;2023-05-02T00:26:32;100469.83;;;16.32;48.45
50632;BME280;49583;45.590;-122.498;2023-05-02T00:28:42;100474.19;;;16.31;48.39
50632;BME280;49583;45.590;-122.498;2023-05-02T00:31:11;100465.98;;;16.30;48.38
50632;BME280;49583;45.590;-122.498;2023-05-02T00:33:24;100464.48;;;16.29;48.53
50632;BME280;49583;45.590;-122.498;2023-05-02T00:35:35;100474.51;;;16.28;48.51
50632;BME280;49583;45.590;-122.498;2023-05-02T00:37:44;100479.17;;;16.26;48.53
50632;BME280;49583;45.590;-122.498;2023-05-02T00:39:54;100477.77;;;16.25;48.40
50632;BME280;49583;45.590;-122.498;2023-05-02T00:42:13;100478.57;;;16.24;48.39
50632;BME280;49583;45.590;-122.498;2023-05-02T00:44:23;100479.84;;;16.21;48.44
50632;BME280;49583;45.590;-122.498;2023-05-02T00:46:33;100475.44;;;16.16;48.61
50632;BME280;49583;45.590;-122.498;2023-05-02T00:49:03;100472.61;;;16.16;48.69
50632;BME280;49583;45.590;-122.498;2023-05-02T00:51:13;100473.70;;;16.14;48.78
50632;BME280;49583;45.590;-122.498;2023-05-02T00:53:43;100470.39;;;16.14;49.00
50632;BME280;49583;45.590;-122.498;2023-05-02T00:55:56;100465.58;;;16.14;48.92
50632;BME280;49583;45.590;-122.498;2023-05-02T00:58:18;100469.69;;;16.13;48.92
50632;BME280;49583;45.590;-122.498;2023-05-02T01:00:33;100471.35;;;16.11;48.97
50632;BME280;49583;45.590;-122.498;2023-05-02T01:02:50;100466.93;;;16.11;49.06
50632;BME280;49583;45.590;-122.498;2023-05-02T01:05:08;100462.90;;;16.13;49.21
50632;BME280;49583;45.590;-122.498;2023-05-02T01:07:45;100466.28;;;16.17;49.37
50632;BME280;49583;45.590;-122.498;2023-05-02T01:10:20;100454.71;;;16.25;49.33
50632;BME280;49583;45.590;-122.498;2023-05-02T01:12:41;100455.91;;;16.37;49.31
50632;BME280;49583;45.590;-122.498;2023-05-02T01:14:58;100455.75;;;16.50;49.27
50632;BME280;49583;45.590;-122.498;2023-05-02T01:17:32;100445.33;;;16.66;49.18
50632;BME280;49583;45.590;-122.498;2023-05-02T01:19:44;100446.81;;;16.80;49.13
50632;BME280;49583;45.590;-122.498;2023-05-02T01:21:57;100456.56;;;16.94;48.86
50632;BME280;49583;45.590;-122.498;2023-05-02T01:24:13;100451.39;;;17.08;48.69
50632;BME280;49583;45.590;-122.498;2023-05-02T01:26:35;100442.87;;;17.24;48.63
50632;BME280;49583;45.590;-122.498;2023-05-02T01:28:55;100443.15;;;17.35;48.22
50632;BME280;49583;45.590;-122.498;2023-05-02T01:31:07;100445.19;;;17.38;48.04
50632;BME280;49583;45.590;-122.498;2023-05-02T01:33:19;100451.28;;;17.36;47.61
50632;BME280;49583;45.590;-122.498;2023-05-02T01:35:30;100455.61;;;17.30;47.53
50632;BME280;49583;45.590;-122.498;2023-05-02T01:37:42;100452.27;;;17.25;47.45
50632;BME280;49583;45.590;-122.498;2023-05-02T01:40:04;100458.48;;;17.19;47.45
50632;BME280;49583;45.590;-122.498;2023-05-02T01:42:20;100459.09;;;17.14;47.53
50632;BME280;49583;45.590;-122.498;2023-05-02T01:44:40;100462.61;;;17.08;47.45
50632;BME280;49583;45.590;-122.498;2023-05-02T01:47:01;100463.23;;;17.01;47.39
50632;BME280;49583;45.590;-122.498;2023-05-02T01:49:13;100451.05;;;16.91;47.34
50632;BME280;49583;45.590;-122.498;2023-05-02T01:51:29;100437.78;;;16.82;47.36
50632;BME280;49583;45.590;-122.498;2023-05-02T01:53:43;100437.43;;;16.76;47.39
50632;BME280;49583;45.590;-122.498;2023-05-02T01:56:00;100445.55;;;16.69;47.43
50632;BME280;49583;45.590;-122.498;2023-05-02T01:58:12;100460.05;;;16.60;47.58
50632;BME280;49583;45.590;-122.498;2023-05-02T02:00:23;100456.30;;;16.50;47.63
50632;BME280;49583;45.590;-122.498;2023-05-02T02:02:35;100447.64;;;16.46;47.64
50632;BME280;49583;45.590;-122.498;2023-05-02T02:04:48;100443.96;;;16.41;47.75
50632;BME280;49583;45.590;-122.498;2023-05-02T02:07:05;100445.33;;;16.36;47.87
50632;BME280;49583;45.590;-122.498;2023-05-02T02:09:16;100447.10;;;16.31;47.96
50632;BME280;49583;45.590;-122.498;2023-05-02T02:11:31;100441.69;;;16.26;47.99
50632;BME280;49583;45.590;-122.498;2023-05-02T02:13:47;100445.58;;;16.22;48.10
50632;BME280;49583;45.590;-122.498;2023-05-02T02:16:12;100439.06;;;16.16;48.13
50632;BME280;49583;45.590;-122.498;2023-05-02T02:18:25;100425.58;;;16.12;48.26
50632;BME280;49583;45.590;-122.498;2023-05-02T02:20:36;100417.40;;;16.07;48.40
50632;BME280;49583;45.590;-122.498;2023-05-02T02:22:49;100403.36;;;16.03;48.57
50632;BME280;49583;45.590;-122.498;2023-05-02T02:25:00;100399.29;;;16.00;48.63
50632;BME280;49583;45.590;-122.498;2023-05-02T02:27:15;100399.05;;;15.98;48.75
50632;BME280;49583;45.590;-122.498;2023-05-02T02:29:25;100400.52;;;15.94;48.92
50632;BME280;49583;45.590;-122.498;2023-05-02T02:31:37;100417.01;;;15.90;48.87
50632;BME280;49583;45.590;-122.498;2023-05-02T02:33:47;100431.64;;;15.85;48.96
50632;BME280;49583;45.590;-122.498;2023-05-02T02:36:01;100436.69;;;15.80;48.96
50632;BME280;49583;45.590;-122.498;2023-05-02T02:38:22;100429.93;;;15.75;48.95
50632;BME280;49583;45.590;-122.498;2023-05-02T02:40:40;100431.52;;;15.72;49.12
50632;BME280;49583;45.590;-122.498;2023-05-02T02:42:54;100436.02;;;15.66;49.15
50632;BME280;49583;45.590;-122.498;2023-05-02T02:45:24;100436.60;;;15.61;49.30
50632;BME280;49583;45.590;-122.498;2023-05-02T02:47:40;100436.92;;;15.56;49.33
50632;BME280;49583;45.590;-122.498;2023-05-02T02:49:54;100438.41;;;15.51;49.50
50632;BME280;49583;45.590;-122.498;2023-05-02T02:52:35;100435.98;;;15.46;49.63
50632;BME280;49583;45.590;-122.498;2023-05-02T02:54:57;100429.37;;;15.41;49.74
50632;BME280;49583;45.590;-122.498;2023-05-02T02:57:15;100416.06;;;15.37;49.88
50632;BME280;49583;45.590;-122.498;2023-05-02T02:59:30;100410.38;;;15.33;49.99
50632;BME280;49583;45.590;-122.498;2023-05-02T03:01:47;100411.10;;;15.29;50.06
50632;BME280;49583;45.590;-122.498;2023-05-02T03:04:02;100412.78;;;15.24;50.04
50632;BME280;49583;45.590;-122.498;2023-05-02T03:06:16;100422.08;;;15.22;50.35
50632;BME280;49583;45.590;-122.498;2023-05-02T03:08:26;100433.58;;;15.18;50.40
50632;BME280;49583;45.590;-122.498;2023-05-02T03:10:46;100442.34;;;15.15;50.53
50632;BME280;49583;45.590;-122.498;2023-05-02T03:13:01;100448.16;;;15.12;50.64
50632;BME280;49583;45.590;-122.498;2023-05-02T03:15:26;100433.20;;;15.07;50.69
50632;BME280;49583;45.590;-122.498;2023-05-02T03:17:42;100421.08;;;15.01;50.85
50632;BME280;49583;45.590;-122.498;2023-05-02T03:20:02;100442.75;;;15.00;50.99
50632;BME280;49583;45.590;-122.498;2023-05-02T03:22:15;100461.81;;;14.95;51.00
50632;BME280;49583;45.590;-122.498;2023-05-02T03:24:44;100463.46;;;14.88;51.27
50632;BME280;49583;45.590;-122.498;2023-05-02T03:26:56;100462.44;;;14.82;51.30
50632;BME280;49583;45.590;-122.498;2023-05-02T03:29:12;100468.27;;;14.78;51.53
50632;BME280;49583;45.590;-122.498;2023-05-02T03:31:22;100476.60;;;14.76;51.75
50632;BME280;49583;45.590;-122.498;2023-05-02T03:33:38;100485.65;;;14.73;51.98
50632;BME280;49583;45.590;-122.498;2023-05-02T03:35:48;100494.55;;;14.68;52.09
50632;BME280;49583;45.590;-122.498;2023-05-02T03:38:17;100495.64;;;14.62;52.14
50632;BME280;49583;45.590;-122.498;2023-05-02T03:40:30;100492.48;;;14.58;52.32
50632;BME280;49583;45.590;-122.498;2023-05-02T03:42:41;100500.90;;;14.55;52.46
50632;BME280;49583;45.590;-122.498;2023-05-02T03:44:58;100511.67;;;14.52;52.75
50632;BME280;49583;45.590;-122.498;2023-05-02T03:47:11;100512.70;;;14.48;52.94
50632;BME280;49583;45.590;-122.498;2023-05-02T03:49:21;100513.79;;;14.45;52.98
50632;BME280;49583;45.590;-122.498;2023-05-02T03:51:34;100516.61;;;14.42;53.11
50632;BME280;49583;45.590;-122.498;2023-05-02T03:53:44;100519.21;;;14.43;53.42
50632;BME280;49583;45.590;-122.498;2023-05-02T03:55:54;100516.20;;;14.42;53.37
50632;BME280;49583;45.590;-122.498;2023-05-02T03:58:17;100508.73;;;14.43;53.71
50632;BME280;49583;45.590;-122.498;2023-05-02T04:00:27;100505.58;;;14.42;53.55
50632;BME280;49583;45.590;-122.498;2023-05-02T04:02:38;100494.95;;;14.42;53.47
50632;BME280;49583;45.590;-122.498;2023-05-02T04:04:51;100479.54;;;14.42;53.46
50632;BME280;49583;45.590;-122.498;2023-05-02T04:07:02;100467.65;;;14.44;53.63
50632;BME280;49583;45.590;-122.498;2023-05-02T04:09:12;100460.25;;;14.44;53.64
50632;BME280;49583;45.590;-122.498;2023-05-02T04:11:30;100461.74;;;14.43;53.81
50632;BME280;49583;45.590;-122.498;2023-05-02T04:13:40;100452.77;;;14.42;53.85
50632;BME280;49583;45.590;-122.498;2023-05-02T04:15:50;100441.42;;;14.41;53.94
50632;BME280;49583;45.590;-122.498;2023-05-02T04:18:02;100439.70;;;14.41;54.07
50632;BME280;49583;45.590;-122.498;2023-05-02T04:20:16;100434.11;;;14.40;54.21
50632;BME280;49583;45.590;-122.498;2023-05-02T04:22:39;100432.55;;;14.39;54.30
50632;BME280;49583;45.590;-122.498;2023-05-02T04:24:49;100433.63;;;14.38;54.30
50632;BME280;49583;45.590;-122.498;2023-05-02T04:26:58;100430.38;;;14.36;54.42
50632;BME280;49583;45.590;-122.498;2023-05-02T04:29:08;100428.08;;;14.34;54.47
50632;BME280;49583;45.590;-122.498;2023-05-02T04:31:18;100437.30;;;14.32;54.54
50632;BME280;49583;45.590;-122.498;2023-05-02T04:33:27;100456.26;;;14.29;54.42
50632;BME280;49583;45.590;-122.498;2023-05-02T04:35:42;100468.20;;;14.25;54.36
50632;BME280;49583;45.590;-122.498;2023-05-02T04:37:53;100471.89;;;14.22;54.42
50632;BME280;49583;45.590;-122.498;2023-05-02T04:40:08;100474.56;;;14.20;54.53
50632;BME280;49583;45.590;-122.498;2023-05-02T04:42:18;100476.83;;;14.16;54.67
50632;BME280;49583;45.590;-122.498;2023-05-02T04:44:35;100473.58;;;14.11;54.57
50632;BME280;49583;45.590;-122.498;2023-05-02T04:46:45;100474.92;;;14.11;54.70
50632;BME280;49583;45.590;-122.498;2023-05-02T04:48:58;100484.83;;;14.10;54.67
50632;BME280;49583;45.590;-122.498;2023-05-02T04:51:11;100498.44;;;14.08;54.68
50632;BME280;49583;45.590;-122.498;2023-05-02T04:53:26;100508.34;;;14.07;54.71
50632;BME280;49583;45.590;-122.498;2023-05-02T04:55:35;100516.52;;;14.07;54.84
50632;BME280;49583;45.590;-122.498;2023-05-02T04:57:45;100519.11;;;14.05;54.75
50632;BME280;49583;45.590;-122.498;2023-05-02T04:59:55;100514.61;;;14.03;54.81
50632;BME280;49583;45.590;-122.498;2023-05-02T05:02:06;100508.40;;;14.03;54.86
50632;BME280;49583;45.590;-122.498;2023-05-02T05:04:16;100496.20;;;14.02;54.94
50632;BME280;49583;45.590;-122.498;2023-05-02T05:06:26;100484.88;;;14.01;54.97
50632;BME280;49583;45.590;-122.498;2023-05-02T05:08:36;100470.89;;;14.01;55.09
50632;BME280;49583;45.590;-122.498;2023-05-02T05:10:46;100463.64;;;14.00;55.15
50632;BME280;49583;45.590;-122.498;2023-05-02T05:12:56;100480.86;;;14.00;55.07
50632;BME280;49583;45.590;-122.498;2023-05-02T05:15:07;100495.18;;;13.99;55.34
50632;BME280;49583;45.590;-122.498;2023-05-02T05:17:18;100511.83;;;13.97;55.22
50632;BME280;49583;45.590;-122.498;2023-05-02T05:19:27;100523.54;;;13.94;55.34
50632;BME280;49583;45.590;-122.498;2023-05-02T05:21:37;100526.83;;;13.91;55.23
50632;BME280;49583;45.590;-122.498;2023-05-02T05:23:47;100531.77;;;13.89;55.23
50632;BME280;49583;45.590;-122.498;2023-05-02T05:26:11;100539.38;;;13.84;55.56
50632;BME280;49583;45.590;-122.498;2023-05-02T05:28:24;100554.13;;;13.80;55.69
50632;BME280;49583;45.590;-122.498;2023-05-02T05:30:37;100564.48;;;13.76;56.20
50632;BME280;49583;45.590;-122.498;2023-05-02T05:32:49;100571.91;;;13.70;56.45
50632;BME280;49583;45.590;-122.498;2023-05-02T05:35:03;100587.80;;;13.69;56.66
50632;BME280;49583;45.590;-122.498;2023-05-02T05:37:16;100597.75;;;13.66;56.77
50632;BME280;49583;45.590;-122.498;2023-05-02T05:39:25;100603.16;;;13.65;56.52
50632;BME280;49583;45.590;-122.498;2023-05-02T05:41:37;100610.77;;;13.64;56.63
50632;BME280;49583;45.590;-122.498;2023-05-02T05:43:49;100615.09;;;13.64;56.68
50632;BME280;49583;45.590;-122.498;2023-05-02T05:46:08;100617.84;;;13.63;56.72
50632;BME280;49583;45.590;-122.498;2023-05-02T05:48:18;100613.11;;;13.59;56.52
50632;BME280;49583;45.590;-122.498;2023-05-02T05:50:27;100609.41;;;13.59;56.64
50632;BME280;49583;45.590;-122.498;2023-05-02T05:52:40;100605.32;;;13.59;56.71
50632;BME280;49583;45.590;-122.498;2023-05-02T05:54:52;100605.77;;;13.57;56.78
50632;BME280;49583;45.590;-122.498;2023-05-02T05:57:02;100611.14;;;13.59;56.85
50632;BME280;49583;45.590;-122.498;2023-05-02T05:59:15;100597.84;;;13.58;56.86
50632;BME280;49583;45.590;-122.498;2023-05-02T06:01:24;100575.05;;;13.58;56.95
50632;BME280;49583;45.590;-122.498;2023-05-02T06:03:34;100565.14;;;13.57;56.87
50632;BME280;49583;45.590;-122.498;2023-05-02T06:05:44;100564.45;;;13.59;56.96
50632;BME280;49583;45.590;-122.498;2023-05-02T06:07:54;100559.35;;;13.61;57.17
50632;BME280;49583;45.590;-122.498;2023-05-02T06:10:04;100559.12;;;13.62;57.22
50632;BME280;49583;45.590;-122.498;2023-05-02T06:12:14;100564.30;;;13.63;57.37
50632;BME280;49583;45.590;-122.498;2023-05-02T06:14:25;100569.42;;;13.64;57.43
50632;BME280;49583;45.590;-122.498;2023-05-02T06:16:38;100577.28;;;13.64;57.40
50632;BME280;49583;45.590;-122.498;2023-05-02T06:18:51;100590.02;;;13.63;57.38
50632;BME280;49583;45.590;-122.498;2023-05-02T06:21:06;100597.17;;;13.64;57.54
50632;BME280;49583;45.590;-122.498;2023-05-02T06:23:18;100583.56;;;13.64;57.73
50632;BME280;49583;45.590;-122.498;2023-05-02T06:25:28;100570.29;;;13.62;57.64
50632;BME280;49583;45.590;-122.498;2023-05-02T06:27:40;100556.67;;;13.61;57.64
50632;BME280;49583;45.590;-122.498;2023-05-02T06:30:01;100539.94;;;13.61;57.70
50632;BME280;49583;45.590;-122.498;2023-05-02T06:32:10;100527.73;;;13.59;57.75
50632;BME280;49583;45.590;-122.498;2023-05-02T06:34:23;100524.11;;;13.59;57.75
50632;BME280;49583;45.590;-122.498;2023-05-02T06:36:43;100533.77;;;13.57;57.79
50632;BME280;49583;45.590;-122.498;2023-05-02T06:38:53;100528.95;;;13.53;57.80
50632;BME280;49583;45.590;-122.498;2023-05-02T06:41:05;100526.27;;;13.52;58.04
50632;BME280;49583;45.590;-122.498;2023-05-02T06:43:15;100522.63;;;13.49;58.00
50632;BME280;49583;45.590;-122.498;2023-05-02T06:45:24;100516.96;;;13.46;58.07
50632;BME280;49583;45.590;-122.498;2023-05-02T06:47:34;100517.73;;;13.43;58.07
50632;BME280;49583;45.590;-122.498;2023-05-02T06:49:44;100512.05;;;13.41;58.18
50632;BME280;49583;45.590;-122.498;2023-05-02T06:51:53;100490.34;;;13.37;58.06
50632;BME280;49583;45.590;-122.498;2023-05-02T06:54:07;100478.36;;;13.33;58.09
50632;BME280;49583;45.590;-122.498;2023-05-02T06:56:16;100466.71;;;13.29;58.31
50632;BME280;49583;45.590;-122.498;2023-05-02T06:58:25;100460.77;;;13.24;58.36
50632;BME280;49583;45.590;-122.498;2023-05-02T07:00:38;100466.88;;;13.21;58.36
50632;BME280;49583;45.590;-122.498;2023-05-02T07:02:48;100469.92;;;13.18;58.37
50632;BME280;49583;45.590;-122.498;2023-05-02T07:04:57;100459.29;;;13.14;58.47
50632;BME280;49583;45.590;-122.498;2023-05-02T07:07:06;100447.89;;;13.07;58.57
50632;BME280;49583;45.590;-122.498;2023-05-02T07:09:36;100450.54;;;13.04;58.43
50632;BME280;49583;45.590;-122.498;2023-05-02T07:11:48;100445.23;;;12.99;58.74
50632;BME280;49583;45.590;-122.498;2023-05-02T07:13:57;100442.62;;;12.94;58.78
50632;BME280;49583;45.590;-122.498;2023-05-02T07:16:08;100451.15;;;12.91;58.87
50632;BME280;49583;45.590;-122.498;2023-05-02T07:18:18;100465.71;;;12.87;58.91
50632;BME280;49583;45.590;-122.498;2023-05-02T07:20:30;100477.30;;;12.83;59.08
50632;BME280;49583;45.590;-122.498;2023-05-02T07:22:43;100479.31;;;12.80;58.97
50632;BME280;49583;45.590;-122.498;2023-05-02T07:24:59;100480.77;;;12.77;59.16
50632;BME280;49583;45.590;-122.498;2023-05-02T07:27:13;100486.07;;;12.72;59.25
50632;BME280;49583;45.590;-122.498;2023-05-02T07:29:25;100482.59;;;12.70;59.39
50632;BME280;49583;45.590;-122.498;2023-05-02T07:31:35;100482.10;;;12.66;59.40
50632;BME280;49583;45.590;-122.498;2023-05-02T07:33:45;100483.23;;;12.63;59.54
50632;BME280;49583;45.590;-122.498;2023-05-02T07:35:54;100479.05;;;12.60;59.77
50632;BME280;49583;45.590;-122.498;2023-05-02T07:38:03;100463.77;;;12.56;59.92
50632;BME280;49583;45.590;-122.498;2023-05-02T07:40:22;100445.39;;;12.54;59.96
50632;BME280;49583;45.590;-122.498;2023-05-02T07:42:32;100429.14;;;12.52;60.04
50632;BME280;49583;45.590;-122.498;2023-05-02T07:44:44;100421.41;;;12.49;60.05
50632;BME280;49583;45.590;-122.498;2023-05-02T07:46:57;100409.23;;;12.46;60.17
50632;BME280;49583;45.590;-122.498;2023-05-02T07:49:06;100389.75;;;12.43;60.26
50632;BME280;49583;45.590;-122.498;2023-05-02T07:51:19;100376.84;;;12.38;60.36
50632;BME280;49583;45.590;-122.498;2023-05-02T07:53:30;100366.90;;;12.33;60.34
50632;BME280;49583;45.590;-122.498;2023-05-02T07:55:39;100356.38;;;12.30;60.52
50632;BME280;49583;45.590;-122.498;2023-05-02T07:57:49;100352.49;;;12.27;60.56
50632;BME280;49583;45.590;-122.498;2023-05-02T07:59:58;100359.11;;;12.23;60.63
50632;BME280;49583;45.590;-122.498;2023-05-02T08:02:18;100369.58;;;12.17;60.64
50632;BME280;49583;45.590;-122.498;2023-05-02T08:04:42;100384.45;;;12.15;60.78
50632;BME280;49583;45.590;-122.498;2023-05-02T08:06:51;100396.25;;;12.12;60.87
50632;BME280;49583;45.590;-122.498;2023-05-02T08:09:03;100403.81;;;12.07;60.93
50632;BME280;49583;45.590;-122.498;2023-05-02T08:11:17;100408.00;;;12.03;60.97
50632;BME280;49583;45.590;-122.498;2023-05-02T08:13:27;100410.63;;;12.00;61.07
50632;BME280;49583;45.590;-122.498;2023-05-02T08:15:36;100422.67;;;11.96;61.16
50632;BME280;49583;45.590;-122.498;2023-05-02T08:17:49;100442.29;;;11.91;61.31
50632;BME280;49583;45.590;-122.498;2023-05-02T08:19:59;100461.77;;;11.88;61.45
50632;BME280;49583;45.590;-122.498;2023-05-02T08:22:12;100466.36;;;11.85;61.68
50632;BME280;49583;45.590;-122.498;2023-05-02T08:24:21;100470.09;;;11.82;62.04
50632;BME280;49583;45.590;-122.498;2023-05-02T08:26:31;100475.30;;;11.80;62.05
50632;BME280;49583;45.590;-122.498;2023-05-02T08:28:40;100478.83;;;11.80;62.23
50632;BME280;49583;45.590;-122.498;2023-05-02T08:30:53;100477.26;;;11.80;62.34
50632;BME280;49583;45.590;-122.498;2023-05-02T08:33:03;100475.05;;;11.80;62.57
50632;BME280;49583;45.590;-122.498;2023-05-02T08:35:15;100473.11;;;11.80;62.57
50632;BME280;49583;45.590;-122.498;2023-05-02T08:37:24;100475.30;;;11.79;62.71
50632;BME280;49583;45.590;-122.498;2023-05-02T08:39:35;100479.83;;;11.79;62.82
50632;BME280;49583;45.590;-122.498;2023-05-02T08:41:53;100474.79;;;11.78;62.98
50632;BME280;49583;45.590;-122.498;2023-05-02T08:44:04;100465.08;;;11.77;63.07
50632;BME280;49583;45.590;-122.498;2023-05-02T08:46:14;100463.11;;;11.77;63.06
50632;BME280;49583;45.590;-122.498;2023-05-02T08:48:29;100468.13;;;11.78;63.22
50632;BME280;49583;45.590;-122.498;2023-05-02T08:50:40;100476.63;;;11.79;63.31
50632;BME280;49583;45.590;-122.498;2023-05-02T08:52:54;100470.69;;;11.80;63.34
50632;BME280;49583;45.590;-122.498;2023-05-02T08:55:05;100466.91;;;11.80;63.33
50632;BME280;49583;45.590;-122.498;2023-05-02T08:57:26;100471.41;;;11.82;63.44
50632;BME280;49583;45.590;-122.498;2023-05-02T08:59:37;100475.73;;;11.83;63.59
50632;BME280;49583;45.590;-122.498;2023-05-02T09:01:51;100480.69;;;11.83;63.53
50632;BME280;49583;45.590;-122.498;2023-05-02T09:04:14;100501.63;;;11.84;63.56
50632;BME280;49583;45.590;-122.498;2023-05-02T09:06:24;100509.69;;;11.85;63.66
50632;BME280;49583;45.590;-122.498;2023-05-02T09:08:35;100498.17;;;11.84;63.78
50632;BME280;49583;45.590;-122.498;2023-05-02T09:10:45;100494.17;;;11.85;63.79
50632;BME280;49583;45.590;-122.498;2023-05-02T09:12:55;100492.92;;;11.85;63.75
50632;BME280;49583;45.590;-122.498;2023-05-02T09:15:14;100483.91;;;11.85;63.82
50632;BME280;49583;45.590;-122.498;2023-05-02T09:17:27;100467.61;;;11.86;63.87
50632;BME280;49583;45.590;-122.498;2023-05-02T09:20:02;100455.63;;;11.86;63.85
50632;BME280;49583;45.590;-122.498;2023-05-02T09:22:23;100437.16;;;11.88;63.94
50632;BME280;49583;45.590;-122.498;2023-05-02T09:24:36;100411.55;;;11.90;64.04
50632;BME280;49583;45.590;-122.498;2023-05-02T09:26:57;100389.23;;;11.91;64.05
50632;BME280;49583;45.590;-122.498;2023-05-02T09:29:10;100365.31;;;11.91;64.09
50632;BME280;49583;45.590;-122.498;2023-05-02T09:31:19;100350.35;;;11.91;64.13
50632;BME280;49583;45.590;-122.498;2023-05-02T09:33:32;100334.97;;;11.91;64.11
50632;BME280;49583;45.590;-122.498;2023-05-02T09:35:54;100313.77;;;11.88;64.01
50632;BME280;49583;45.590;-122.498;2023-05-02T09:38:19;100298.69;;;11.85;64.04
50632;BME280;49583;45.590;-122.498;2023-05-02T09:40:31;100299.67;;;11.81;63.96
50632;BME280;49583;45.590;-122.498;2023-05-02T09:42:40;100305.59;;;11.79;64.01
50632;BME280;49583;45.590;-122.498;2023-05-02T09:45:20;100318.83;;;11.76;64.03
50632;BME280;49583;45.590;-122.498;2023-05-02T09:47:30;100339.29;;;11.73;64.14
50632;BME280;49583;45.590;-122.498;2023-05-02T09:49:43;100348.20;;;11.71;64.18
50632;BME280;49583;45.590;-122.498;2023-05-02T09:52:14;100352.94;;;11.69;64.17
50632;BME280;49583;45.590;-122.498;2023-05-02T09:54:37;100347.75;;;11.66;64.31
50632;BME280;49583;45.590;-122.498;2023-05-02T09:56:56;100349.42;;;11.63;64.30
50632;BME280;49583;45.590;-122.498;2023-05-02T09:59:17;100353.86;;;11.59;64.34
50632;BME280;49583;45.590;-122.498;2023-05-02T10:04:32;100358.14;;;11.50;64.27
50632;BME280;49583;45.590;-122.498;2023-05-02T10:06:41;100354.09;;;11.47;64.35
50632;BME280;49583;45.590;-122.498;2023-05-02T10:08:51;100350.91;;;11.42;64.35
50632;BME280;49583;45.590;-122.498;2023-05-02T10:11:02;100355.67;;;11.41;64.52
50632;BME280;49583;45.590;-122.498;2023-05-02T10:13:13;100356.82;;;11.40;64.56
50632;BME280;49583;45.590;-122.498;2023-05-02T10:15:25;100355.25;;;11.39;64.65
50632;BME280;49583;45.590;-122.498;2023-05-02T10:17:40;100355.17;;;11.39;64.78
50632;BME280;49583;45.590;-122.498;2023-05-02T10:19:57;100351.71;;;11.38;64.88
50632;BME280;49583;45.590;-122.498;2023-05-02T10:22:08;100352.02;;;11.38;64.80
50632;BME280;49583;45.590;-122.498;2023-05-02T10:24:19;100345.52;;;11.38;64.94
50632;BME280;49583;45.590;-122.498;2023-05-02T10:26:29;100355.23;;;11.38;64.90
50632;BME280;49583;45.590;-122.498;2023-05-02T10:28:39;100358.77;;;11.37;65.14
50632;BME280;49583;45.590;-122.498;2023-05-02T10:30:50;100352.96;;;11.37;65.06
50632;BME280;49583;45.590;-122.498;2023-05-02T10:33:00;100351.38;;;11.36;65.17
50632;BME280;49583;45.590;-122.498;2023-05-02T10:35:11;100358.30;;;11.38;65.27
50632;BME280;49583;45.590;-122.498;2023-05-02T10:37:20;100355.64;;;11.38;65.15
50632;BME280;49583;45.590;-122.498;2023-05-02T10:39:32;100354.61;;;11.38;65.31
50632;BME280;49583;45.590;-122.498;2023-05-02T10:41:42;100355.95;;;11.39;65.25
50632;BME280;49583;45.590;-122.498;2023-05-02T10:43:51;100355.48;;;11.39;65.39
50632;BME280;49583;45.590;-122.498;2023-05-02T10:46:00;100350.79;;;11.40;65.33
50632;BME280;49583;45.590;-122.498;2023-05-02T10:48:17;100349.06;;;11.40;65.40
50632;BME280;49583;45.590;-122.498;2023-05-02T10:50:43;100343.89;;;11.39;65.46
50632;BME280;49583;45.590;-122.498;2023-05-02T10:52:53;100337.38;;;11.39;65.48
50632;BME280;49583;45.590;-122.498;2023-05-02T10:55:19;100333.46;;;11.39;65.44
50632;BME280;49583;45.590;-122.498;2023-05-02T10:57:30;100327.83;;;11.39;65.68
50632;BME280;49583;45.590;-122.498;2023-05-02T10:59:40;100317.48;;;11.38;65.65
50632;BME280;49583;45.590;-122.498;2023-05-02T11:01:49;100321.88;;;11.39;65.74
50632;BME280;49583;45.590;-122.498;2023-05-02T11:03:59;100328.63;;;11.40;65.77
50632;BME280;49583;45.590;-122.498;2023-05-02T11:06:09;100337.79;;;11.41;65.80
50632;BME280;49583;45.590;-122.498;2023-05-02T11:08:33;100330.06;;;11.41;65.84
50632;BME280;49583;45.590;-122.498;2023-05-02T11:10:42;100320.76;;;11.42;65.95
50632;BME280;49583;45.590;-122.498;2023-05-02T11:12:53;100315.27;;;11.43;65.90
50632;BME280;49583;45.590;-122.498;2023-05-02T11:15:03;100313.72;;;11.43;65.89
50632;BME280;49583;45.590;-122.498;2023-05-02T11:17:13;100327.36;;;11.44;66.08